Skip Navigation Links
NOAA logo - Click to go to the NOAA homepage
NOAA's National Weather Service
Alaska Aviation Weather Unit
  NWS logo - Click to go to the NWS homepage
Left Navbar Graphic     02 AKDT = 10 GMT

   
NOAA is celebrating 200 years of science, service, and stewardship. Visit the NOAA 200th celebration Web site to learn more.
USA.gov is the U.S. Government's official Web portal to all Federal, state and local government Web resources and services.
Facebook
NWS on Facebook

AAWU Home :: Display TAF Add Bookmark
METAR PAMK 270456Z AUTO 07003KT 10SM CLR M12/M17 A2988 RMK AO2 SLP122
     T11221167 FZRANO $=

METAR PAMK 270556Z AUTO 00000KT 10SM CLR M15/M17 A2987 RMK AO2 SLP119
     T11501172 11067 21150 57008 FZRANO $=

METAR PAMK 270656Z AUTO 01004KT 10SM CLR M16/M17 A2987 RMK AO2
 SLP117 T11561167 FZRANO $=

METAR PAMK 270756Z AUTO 32004KT 10SM CLR M17/M18 A2986 RMK AO2 SLP117
     T11671178 FZRANO $=

METAR PAMK 270856Z AUTO 31005KT 10SM CLR M17/M18 A2986 RMK AO2 SLP114
     T11671178 410671211 58005 FZRANO $=

METAR PAMK 270956Z AUTO 34004KT 10SM CLR M18/M19 A2985 RMK AO2 SLP111
     T11781194 FZRANO $=


NOAA's National Weather Service
Alaska Aviation Weather Unit
6930 Sand Lake Road
Anchorage, AK 99502-1845
Disclaimer
Credits
Glossary
Privacy Policy
About Us
Career Opportunities
Contact AAWU Internet Services Site last modified: April, 17th 2012